KSGH/SGH METAR and TAF weather

Enter ICAO airport designator
Station Type Date Time Source
KSGH METAR 2019/10/21 02:56 UTC NOAA

KSGH 210256Z AUTO 19005KT 10SM OVC065 16/14 A2997 RMK AO2 SLP147 T01610139 51015


Station Type Date Time Source
KSGH Decoded METAR 2019/10/21 02:56 UTC NOAA

Springfield, Springfield-Beckley Municipal Airport, OH, United States (KSGH) 39-50-25N 083-50-24W
Oct 20, 2019 - 10:56 PM EDT / 2019.10.21 0256 UTC
Wind: from the S (190 degrees) at 6 MPH (5 KT):0
Visibility: 10 mile(s):0
Sky conditions: overcast
Temperature: 61.0 F (16.1 C)
Dew Point: 57.0 F (13.9 C)
Relative Humidity: 86%
Pressure (altimeter): 29.97 in. Hg (1014 hPa)
Pressure tendency: 0.04 inches (1.5 hPa) higher than three hours ago
ob: KSGH 210256Z AUTO 19005KT 10SM OVC065 16/14 A2997 RMK AO2 SLP147 T01610139 51015
cycle: 3

Station Type Date Time Source
KSGH TAF UTC NOAA

Error!

Example: see airport list